createdAt,value
2019-06-20T00:01:40.044Z,9.77
2019-06-20T00:04:09.448Z,10.83
2019-06-20T00:06:38.934Z,10.47
2019-06-20T00:09:09.313Z,9.40
2019-06-20T00:11:39.033Z,9.43
2019-06-20T00:14:08.440Z,11.30
2019-06-20T00:16:37.871Z,12.60
2019-06-20T00:19:07.304Z,11.00
2019-06-20T00:21:36.727Z,9.70
2019-06-20T00:24:06.228Z,9.57
2019-06-20T00:26:35.711Z,10.20
2019-06-20T00:29:05.334Z,9.17
2019-06-20T00:31:34.783Z,10.57
2019-06-20T00:34:04.183Z,10.77
2019-06-20T00:36:34.539Z,10.10
2019-06-20T00:39:04.571Z,13.13
2019-06-20T00:41:34.023Z,12.63
2019-06-20T00:44:03.537Z,16.27
2019-06-20T00:46:32.899Z,12.03
2019-06-20T00:49:02.349Z,12.47
2019-06-20T00:51:31.793Z,11.77
2019-06-20T00:54:01.171Z,12.47
2019-06-20T00:56:30.589Z,13.47
2019-06-20T00:58:59.955Z,11.40
2019-06-20T01:01:29.350Z,13.27
2019-06-20T01:03:58.778Z,11.63
2019-06-20T01:06:28.131Z,12.40
2019-06-20T01:08:57.893Z,11.83
2019-06-20T01:11:27.237Z,10.40
2019-06-20T01:13:56.662Z,9.57
2019-06-20T01:16:26.134Z,11.47
2019-06-20T01:18:55.572Z,9.17
2019-06-20T01:21:25.003Z,9.60
2019-06-20T01:23:54.452Z,9.43
2019-06-20T01:26:23.890Z,9.10
2019-06-20T01:28:53.263Z,9.40
2019-06-20T01:31:22.690Z,8.47
2019-06-20T01:33:52.370Z,9.80
2019-06-20T01:36:21.818Z,9.30
2019-06-20T01:38:52.098Z,9.03
2019-06-20T01:41:21.577Z,9.50
2019-06-20T01:43:51.293Z,10.60
2019-06-20T01:46:20.790Z,10.23
2019-06-20T01:48:50.282Z,9.47
2019-06-20T01:51:19.685Z,8.90
2019-06-20T01:53:49.094Z,9.83
2019-06-20T01:56:18.517Z,11.53
2019-06-20T01:58:47.926Z,8.57
2019-06-20T02:01:17.384Z,9.63
2019-06-20T02:03:46.767Z,12.07
2019-06-20T02:06:16.289Z,8.80
2019-06-20T02:08:45.693Z,9.80
2019-06-20T02:11:15.189Z,10.97
2019-06-20T02:13:44.964Z,9.83
2019-06-20T02:16:14.628Z,9.10
2019-06-20T02:18:44.015Z,9.17
2019-06-20T02:21:13.382Z,9.47
2019-06-20T02:23:42.746Z,9.00
2019-06-20T02:26:12.556Z,8.40
2019-06-20T02:28:41.949Z,9.60
2019-06-20T02:31:11.363Z,9.20
2019-06-20T02:33:40.777Z,7.77
2019-06-20T02:36:11.039Z,7.53
2019-06-20T02:38:40.424Z,9.97
2019-06-20T02:41:09.879Z,7.83
2019-06-20T02:43:39.351Z,8.63
2019-06-20T02:46:08.849Z,8.23
2019-06-20T02:48:38.375Z,7.43
2019-06-20T02:51:07.859Z,8.27
2019-06-20T02:53:37.277Z,9.30
2019-06-20T02:56:06.726Z,8.23
2019-06-20T02:58:36.274Z,11.27
2019-06-20T03:01:06.062Z,9.87
2019-06-20T03:03:35.529Z,11.80
2019-06-20T03:06:05.312Z,15.13
2019-06-20T03:08:34.804Z,16.90
2019-06-20T03:11:04.346Z,15.13
2019-06-20T03:13:33.710Z,16.53
2019-06-20T03:16:03.101Z,18.20
2019-06-20T03:18:32.493Z,18.20
2019-06-20T03:21:01.925Z,23.00
2019-06-20T03:23:31.763Z,18.87
2019-06-20T03:26:01.217Z,18.87
2019-06-20T03:28:30.545Z,16.40
2019-06-20T03:30:59.910Z,20.30
2019-06-20T03:33:29.332Z,19.10
2019-06-20T03:35:59.549Z,18.17
2019-06-20T03:38:28.954Z,17.73
2019-06-20T03:40:58.447Z,18.67
2019-06-20T03:43:28.144Z,21.80
2019-06-20T03:45:58.400Z,18.33
2019-06-20T03:48:27.925Z,17.37
2019-06-20T03:50:57.717Z,16.87
2019-06-20T03:53:27.141Z,18.07
2019-06-20T03:55:56.549Z,22.90
2019-06-20T03:58:25.903Z,27.33
2019-06-20T04:00:55.307Z,33.37
2019-06-20T04:03:24.763Z,32.97
2019-06-20T04:05:54.179Z,35.27
2019-06-20T04:08:23.536Z,39.73
2019-06-20T04:10:54.041Z,40.63
2019-06-20T04:13:23.422Z,43.33
2019-06-20T04:15:52.870Z,36.77
2019-06-20T04:18:23.483Z,43.13
2019-06-20T04:20:52.879Z,46.57
2019-06-20T04:23:22.246Z,50.77
2019-06-20T04:25:51.738Z,50.40
2019-06-20T04:28:21.143Z,49.43
2019-06-20T04:30:50.497Z,43.80
2019-06-20T04:33:19.915Z,38.17
2019-06-20T04:35:50.485Z,35.60
2019-06-20T04:38:19.837Z,34.07
2019-06-20T04:40:49.595Z,35.93
2019-06-20T04:43:20.167Z,39.73
2019-06-20T04:46:14.737Z,40.00
2019-06-20T04:48:44.435Z,40.23
2019-06-20T04:51:13.843Z,34.80
2019-06-20T04:53:44.058Z,34.60
2019-06-20T04:56:13.419Z,35.80
2019-06-20T04:58:42.870Z,31.73
2019-06-20T05:01:12.755Z,30.23
2019-06-20T05:03:42.334Z,30.23
2019-06-20T05:06:11.761Z,31.33
2019-06-20T05:08:41.280Z,34.03
2019-06-20T05:11:11.516Z,31.00
2019-06-20T05:13:40.985Z,31.77
2019-06-20T05:16:10.487Z,30.00
2019-06-20T05:18:39.937Z,34.00
2019-06-20T05:21:09.396Z,35.50
2019-06-20T05:23:38.845Z,29.80
2019-06-20T05:26:08.240Z,24.60
2019-06-20T05:28:37.839Z,24.93
2019-06-20T05:31:07.359Z,26.73
2019-06-20T05:33:36.795Z,29.77
2019-06-20T05:36:07.239Z,23.60
2019-06-20T05:38:37.464Z,22.30
2019-06-20T05:41:06.935Z,18.90
2019-06-20T05:43:36.746Z,17.40
2019-06-20T05:46:10.802Z,17.17
2019-06-20T05:48:37.414Z,17.57
2019-06-20T05:51:07.777Z,19.67
2019-06-20T05:53:37.173Z,20.05
2019-06-20T05:56:08.718Z,17.50
2019-06-20T05:58:38.273Z,17.57
2019-06-20T06:01:07.802Z,18.87
2019-06-20T06:03:37.218Z,20.00
2019-06-20T06:06:06.609Z,19.23
2019-06-20T06:08:36.110Z,18.60
2019-06-20T06:11:06.812Z,17.87
2019-06-20T06:13:36.682Z,18.98
2019-06-20T06:16:06.172Z,19.67
2019-06-20T06:18:35.588Z,18.77
2019-06-20T06:21:05.238Z,21.37
2019-06-20T06:23:34.656Z,22.75
2019-06-20T06:26:04.137Z,22.48
2019-06-20T06:28:33.569Z,22.45
2019-06-20T06:31:02.983Z,23.73
2019-06-20T06:33:32.444Z,23.67
2019-06-20T06:36:01.887Z,27.07
2019-06-20T06:38:31.505Z,24.27
2019-06-20T06:41:00.905Z,24.52
2019-06-20T06:43:30.343Z,24.10
2019-06-20T06:45:59.797Z,26.02
2019-06-20T06:48:29.170Z,25.77
2019-06-20T06:50:58.595Z,26.57
2019-06-20T06:53:27.968Z,24.00
2019-06-20T06:55:57.364Z,26.15
2019-06-20T06:58:26.752Z,24.80
2019-06-20T07:00:56.598Z,24.82
2019-06-20T07:03:26.003Z,25.15
2019-06-20T07:05:55.458Z,28.40
2019-06-20T07:08:24.905Z,27.22
2019-06-20T07:10:54.280Z,24.75
2019-06-20T07:13:23.817Z,23.95
2019-06-20T07:15:53.390Z,25.08
2019-06-20T07:18:22.938Z,26.10
2019-06-20T07:20:52.376Z,28.32
2019-06-20T07:23:22.034Z,24.07
2019-06-20T07:25:51.444Z,21.00
2019-06-20T07:28:21.023Z,24.95
2019-06-20T07:30:50.473Z,24.63
2019-06-20T07:33:19.831Z,24.27
2019-06-20T07:35:49.443Z,22.17
2019-06-20T07:38:18.931Z,21.00
2019-06-20T07:40:48.276Z,22.45
2019-06-20T07:43:17.708Z,21.60
2019-06-20T07:46:01.396Z,23.18
2019-06-20T07:48:18.197Z,22.65
2019-06-20T07:50:47.682Z,21.60
2019-06-20T07:53:17.098Z,20.37
2019-06-20T07:55:46.527Z,23.87
2019-06-20T07:58:15.920Z,20.12
2019-06-20T08:00:45.404Z,17.27
2019-06-20T08:03:14.780Z,17.57
2019-06-20T08:05:44.185Z,18.92
2019-06-20T08:08:13.592Z,17.20
2019-06-20T08:10:42.970Z,17.23
2019-06-20T08:13:12.444Z,17.23
2019-06-20T08:15:41.810Z,17.15
2019-06-20T08:18:11.218Z,17.70
2019-06-20T08:20:40.950Z,21.33
2019-06-20T08:23:10.354Z,18.25
2019-06-20T08:25:39.748Z,17.20
2019-06-20T08:28:09.163Z,16.93
2019-06-20T08:30:38.721Z,14.28
2019-06-20T08:33:11.908Z,14.70
2019-06-20T08:35:40.422Z,16.97
2019-06-20T08:38:09.806Z,15.10
2019-06-20T08:40:40.758Z,16.37
2019-06-20T08:43:10.175Z,12.13
2019-06-20T08:45:40.565Z,15.70
2019-06-20T08:48:10.282Z,13.75
2019-06-20T08:50:39.661Z,14.07
2019-06-20T08:53:09.216Z,12.95
2019-06-20T08:55:38.578Z,13.40
2019-06-20T08:58:07.948Z,12.63
2019-06-20T09:00:39.170Z,12.00
2019-06-20T09:03:08.735Z,11.48
2019-06-20T09:05:38.215Z,9.95
2019-06-20T09:08:11.287Z,12.13
2019-06-20T09:10:40.273Z,11.78
2019-06-20T09:13:11.185Z,10.88
2019-06-20T09:15:40.592Z,10.95
2019-06-20T09:18:09.939Z,9.30
2019-06-20T09:20:40.079Z,9.48
2019-06-20T09:23:09.456Z,9.30
2019-06-20T09:25:39.420Z,9.95
2019-06-20T09:28:09.610Z,8.95
2019-06-20T09:30:39.284Z,8.93
2019-06-20T09:33:09.441Z,9.53
2019-06-20T09:35:38.781Z,9.85
2019-06-20T09:38:08.472Z,10.45
2019-06-20T09:40:37.829Z,9.83
2019-06-20T09:43:07.515Z,8.88
2019-06-20T09:45:37.331Z,9.03
2019-06-20T09:48:06.684Z,9.55
2019-06-20T09:50:36.050Z,10.68
2019-06-20T09:53:05.425Z,9.73
2019-06-20T09:55:34.891Z,10.45
2019-06-20T09:58:04.339Z,10.63
2019-06-20T10:00:34.112Z,13.32
2019-06-20T10:03:03.888Z,12.05
2019-06-20T10:05:33.241Z,28.87
2019-06-20T10:08:02.637Z,15.25
2019-06-20T10:10:33.593Z,11.95
2019-06-20T10:13:02.945Z,11.18
2019-06-20T10:15:33.631Z,11.25
2019-06-20T10:18:03.040Z,12.50
2019-06-20T10:20:32.719Z,12.35
2019-06-20T10:23:02.130Z,11.03
2019-06-20T10:25:31.557Z,12.07
2019-06-20T10:28:00.886Z,11.93
2019-06-20T10:30:30.372Z,12.98
2019-06-20T10:32:59.774Z,12.00
2019-06-20T10:35:29.152Z,12.13
2019-06-20T10:37:58.515Z,11.65
2019-06-20T10:40:28.058Z,11.97
2019-06-20T10:42:57.424Z,12.95
2019-06-20T10:45:27.208Z,11.45
2019-06-20T10:47:56.658Z,11.97
2019-06-20T10:50:26.423Z,11.73
2019-06-20T10:52:55.845Z,11.08
2019-06-20T10:55:25.996Z,11.25
2019-06-20T10:57:55.464Z,14.58
2019-06-20T11:00:31.360Z,11.53
2019-06-20T11:02:57.048Z,11.35
2019-06-20T11:05:26.641Z,11.78
2019-06-20T11:07:55.987Z,11.33
2019-06-20T11:10:25.673Z,11.45
2019-06-20T11:12:56.335Z,11.50
2019-06-20T11:15:26.219Z,11.10
2019-06-20T11:17:56.871Z,12.37
2019-06-20T11:20:26.672Z,11.12
2019-06-20T11:22:56.035Z,11.88
2019-06-20T11:25:25.386Z,11.68
2019-06-20T11:27:54.750Z,11.73
2019-06-20T11:30:25.994Z,10.70
2019-06-20T11:32:55.374Z,11.38
2019-06-20T11:35:24.750Z,11.80
2019-06-20T11:37:54.131Z,10.98
2019-06-20T11:40:23.711Z,11.22
2019-06-20T11:42:53.058Z,12.13
2019-06-20T11:45:22.642Z,18.50
2019-06-20T11:47:52.043Z,13.65
2019-06-20T11:50:22.917Z,12.45
2019-06-20T11:52:52.333Z,11.88
2019-06-20T11:55:22.006Z,12.45
2019-06-20T11:57:51.359Z,12.73
2019-06-20T12:00:21.800Z,11.90
2019-06-20T12:02:51.183Z,10.93
2019-06-20T12:05:20.794Z,10.55
2019-06-20T12:07:50.314Z,11.50
2019-06-20T12:10:20.273Z,11.60
2019-06-20T12:12:49.673Z,10.35
2019-06-20T12:15:19.540Z,14.60
2019-06-20T12:17:49.429Z,12.58
2019-06-20T12:20:20.659Z,13.62
2019-06-20T12:22:50.728Z,10.70
2019-06-20T12:25:20.727Z,18.42
2019-06-20T12:27:50.314Z,13.13
2019-06-20T12:30:21.827Z,10.38
2019-06-20T12:32:51.334Z,9.30
2019-06-20T12:35:20.776Z,12.00
2019-06-20T12:37:51.660Z,6.67
2019-06-20T12:40:22.963Z,7.72
2019-06-20T12:42:52.386Z,8.58
2019-06-20T12:45:22.009Z,10.63
2019-06-20T12:47:51.466Z,8.63
2019-06-20T12:50:20.921Z,9.83
2019-06-20T12:52:51.925Z,9.47
2019-06-20T12:55:21.322Z,8.87
2019-06-20T12:57:50.686Z,10.27
2019-06-20T13:00:20.872Z,12.00
2019-06-20T13:02:51.259Z,11.03
2019-06-20T13:05:21.265Z,10.00
2019-06-20T13:07:50.641Z,10.97
2019-06-20T13:10:20.165Z,11.20
2019-06-20T13:12:49.648Z,11.30
2019-06-20T13:15:19.352Z,8.13
2019-06-20T13:17:49.187Z,8.70
2019-06-20T13:20:19.854Z,9.30
2019-06-20T13:22:49.657Z,9.93
2019-06-20T13:25:19.218Z,9.80
2019-06-20T13:27:50.240Z,8.50
2019-06-20T13:30:20.301Z,9.47
2019-06-20T13:32:49.655Z,10.80
2019-06-20T13:35:19.416Z,9.90
2019-06-20T13:37:49.847Z,11.50
2019-06-20T13:40:19.712Z,12.33
2019-06-20T13:42:50.367Z,14.57
2019-06-20T13:45:22.477Z,12.17
2019-06-20T13:47:52.054Z,12.17
2019-06-20T13:50:23.431Z,13.10
2019-06-20T13:52:52.745Z,12.20
2019-06-20T13:55:22.085Z,12.13
2019-06-20T13:57:51.501Z,12.40
2019-06-20T14:00:21.867Z,10.50
2019-06-20T14:02:51.768Z,12.63
2019-06-20T14:05:21.341Z,10.40
2019-06-20T14:07:53.548Z,9.27
2019-06-20T14:10:21.890Z,9.27
2019-06-20T14:12:51.275Z,12.77
2019-06-20T14:15:20.730Z,8.97
2019-06-20T14:17:50.170Z,8.20
2019-06-20T14:20:20.203Z,8.87
2019-06-20T14:22:49.788Z,8.80
2019-06-20T14:25:19.718Z,16.77
2019-06-20T14:27:49.561Z,10.10
2019-06-20T14:30:20.730Z,14.70
2019-06-20T14:32:51.427Z,12.17
2019-06-20T14:35:21.014Z,10.97
2019-06-20T14:37:51.761Z,9.17
2019-06-20T14:40:21.594Z,12.77
2019-06-20T14:42:52.395Z,16.93
2019-06-20T14:45:21.918Z,21.90
2019-06-20T14:47:52.523Z,12.40
2019-06-20T14:50:23.023Z,16.37
2019-06-20T14:52:53.998Z,14.13
2019-06-20T14:55:23.716Z,15.37
2019-06-20T14:57:54.729Z,13.60
2019-06-20T15:00:25.053Z,11.73
2019-06-20T15:02:58.403Z,14.97
2019-06-20T15:05:25.748Z,13.90
2019-06-20T15:07:55.889Z,11.13
2019-06-20T15:10:25.518Z,12.10
2019-06-20T15:12:56.028Z,18.70
2019-06-20T15:15:25.648Z,15.10
2019-06-20T15:17:56.294Z,13.47
2019-06-20T15:20:26.106Z,8.50
2019-06-20T15:22:56.679Z,9.30
2019-06-20T15:25:26.263Z,7.10
2019-06-20T15:27:57.111Z,7.73
2019-06-20T15:30:26.813Z,11.03
2019-06-20T15:33:07.601Z,9.73
2019-06-20T15:35:27.564Z,9.43
2019-06-20T15:37:57.683Z,11.00
2019-06-20T15:40:27.316Z,9.30
2019-06-20T15:42:57.398Z,7.60
2019-06-20T15:45:27.901Z,8.97
2019-06-20T15:47:57.305Z,8.57
2019-06-20T15:50:26.716Z,8.07
2019-06-20T15:52:56.133Z,9.33
2019-06-20T15:55:25.596Z,6.70
2019-06-20T15:57:54.987Z,7.43
2019-06-20T16:00:27.615Z,6.00
2019-06-20T16:03:09.466Z,6.30
2019-06-20T16:05:28.431Z,6.50
2019-06-20T16:07:57.755Z,6.90
2019-06-20T16:10:27.399Z,6.67
2019-06-20T16:12:56.767Z,8.60
2019-06-20T16:15:26.287Z,5.90
2019-06-20T16:17:55.622Z,5.97
2019-06-20T16:20:25.021Z,6.17
2019-06-20T16:22:54.484Z,6.07
2019-06-20T16:25:24.445Z,6.20
2019-06-20T16:27:53.831Z,5.60
2019-06-20T16:30:23.496Z,6.03
2019-06-20T16:32:53.021Z,6.33
2019-06-20T16:35:22.652Z,6.70
2019-06-20T16:37:52.079Z,6.40
2019-06-20T16:40:37.321Z,6.83
2019-06-20T16:43:06.676Z,8.27
2019-06-20T16:45:36.073Z,7.27
2019-06-20T16:48:05.554Z,7.90
2019-06-20T16:50:34.889Z,7.77
2019-06-20T16:53:04.475Z,7.93
2019-06-20T16:55:33.840Z,11.10
2019-06-20T16:58:03.231Z,8.27
2019-06-20T17:00:33.159Z,8.70
2019-06-20T17:03:02.515Z,7.73
2019-06-20T17:05:32.037Z,7.20
2019-06-20T17:08:01.497Z,7.67
2019-06-20T17:10:30.904Z,62.80
2019-06-20T17:13:00.315Z,18.33
2019-06-20T17:15:29.717Z,9.47
2019-06-20T17:17:59.119Z,9.83
2019-06-20T17:20:29.744Z,10.53
2019-06-20T17:22:59.229Z,8.00
2019-06-20T17:25:28.656Z,10.33
2019-06-20T17:27:58.422Z,11.10
2019-06-20T17:30:28.590Z,11.97
2019-06-20T17:32:58.098Z,11.40
2019-06-20T17:35:27.679Z,14.13
2019-06-20T17:37:57.961Z,14.00
2019-06-20T17:40:28.586Z,12.20
2019-06-20T17:42:58.040Z,10.63
2019-06-20T17:45:29.271Z,12.33
2019-06-20T17:47:58.842Z,11.40
2019-06-20T17:50:28.523Z,11.07
2019-06-20T17:52:58.168Z,11.57
2019-06-20T17:55:27.596Z,11.17
2019-06-20T17:57:57.097Z,11.30
2019-06-20T18:00:28.498Z,11.17
2019-06-20T18:02:57.864Z,10.50
2019-06-20T18:05:27.438Z,10.63
2019-06-20T18:07:57.077Z,10.60
2019-06-20T18:10:26.734Z,13.40
2019-06-20T18:12:56.133Z,16.73
2019-06-20T18:15:25.648Z,11.33
2019-06-20T18:17:55.373Z,16.13
2019-06-20T18:20:25.313Z,12.27
2019-06-20T18:22:54.690Z,11.13
2019-06-20T18:25:25.594Z,13.50
2019-06-20T18:27:54.965Z,12.53
2019-06-20T18:30:33.480Z,14.27
2019-06-20T18:33:02.869Z,12.13
2019-06-20T18:35:32.155Z,11.13
2019-06-20T18:38:01.622Z,15.23
2019-06-20T18:40:31.219Z,14.07
2019-06-20T18:43:00.589Z,12.33
2019-06-20T18:45:29.928Z,13.67
2019-06-20T18:47:59.323Z,13.17
2019-06-20T18:50:28.650Z,14.10
2019-06-20T18:52:58.044Z,13.63
2019-06-20T18:55:27.405Z,13.43
2019-06-20T18:57:56.760Z,16.87
2019-06-20T19:00:34.661Z,15.27
2019-06-20T19:02:57.395Z,20.20
2019-06-20T19:05:26.763Z,17.03
2019-06-20T19:07:56.107Z,18.27
2019-06-20T19:10:25.669Z,15.67
2019-06-20T19:12:55.024Z,14.47
2019-06-20T19:15:24.881Z,15.90
2019-06-20T19:17:54.287Z,14.40
2019-06-20T19:20:23.994Z,16.57
2019-06-20T19:22:53.478Z,18.47
2019-06-20T19:25:22.800Z,16.10
2019-06-20T19:27:53.346Z,19.20
2019-06-20T19:30:28.457Z,25.33
2019-06-20T19:32:58.652Z,17.47
2019-06-20T19:35:28.043Z,16.10
2019-06-20T19:37:57.435Z,17.67
2019-06-20T19:40:29.780Z,17.23
2019-06-20T19:42:59.168Z,18.30
2019-06-20T19:45:28.502Z,17.63
2019-06-20T19:47:57.875Z,17.70
2019-06-20T19:50:27.233Z,21.17
2019-06-20T19:52:56.662Z,16.53
2019-06-20T19:55:26.035Z,20.23
2019-06-20T19:57:55.498Z,12.17
2019-06-20T20:00:26.646Z,11.97
2019-06-20T20:02:56.019Z,11.40
2019-06-20T20:05:25.570Z,13.50
2019-06-20T20:07:54.927Z,11.27
2019-06-20T20:10:33.131Z,11.83
2019-06-20T20:13:03.065Z,13.47
2019-06-20T20:15:32.418Z,14.83
2019-06-20T20:18:02.256Z,13.27
2019-06-20T20:20:31.619Z,13.73
2019-06-20T20:23:00.987Z,14.80
2019-06-20T20:25:30.695Z,23.90
2019-06-20T20:28:00.160Z,13.07
2019-06-20T20:30:29.499Z,15.83
2019-06-20T20:33:01.897Z,18.07
2019-06-20T20:35:35.529Z,47.63
2019-06-20T20:38:01.492Z,27.33
2019-06-20T20:40:31.050Z,15.63
2019-06-20T20:43:00.381Z,13.03
2019-06-20T20:45:29.752Z,13.50
2019-06-20T20:47:59.098Z,18.60
2019-06-20T20:50:28.453Z,18.60
2019-06-20T20:52:57.856Z,17.47
2019-06-20T20:55:27.272Z,18.30
2019-06-20T20:57:56.621Z,19.63
2019-06-20T21:00:27.610Z,16.17
2019-06-20T21:02:56.939Z,14.40
2019-06-20T21:05:26.296Z,14.23
2019-06-20T21:07:55.665Z,16.07
2019-06-20T21:10:25.119Z,19.73
2019-06-20T21:12:54.490Z,19.67
2019-06-20T21:15:25.220Z,18.13
2019-06-20T21:17:55.803Z,15.83
2019-06-20T21:20:25.282Z,50.93
2019-06-20T21:22:54.731Z,33.30
2019-06-20T21:25:24.110Z,33.40
2019-06-20T21:27:53.473Z,37.03
2019-06-20T21:30:22.937Z,26.57
2019-06-20T21:32:52.300Z,20.03
2019-06-20T21:35:21.691Z,20.97
2019-06-20T21:37:51.056Z,16.27
2019-06-20T21:40:21.905Z,17.20
2019-06-20T21:42:52.186Z,17.47
2019-06-20T21:45:22.396Z,16.33
2019-06-20T21:47:51.765Z,36.13
2019-06-20T21:50:21.871Z,52.50
2019-06-20T21:52:51.288Z,26.83
2019-06-20T21:55:20.699Z,26.67
2019-06-20T21:57:50.063Z,20.90
2019-06-20T22:00:28.339Z,20.27
2019-06-20T22:02:58.017Z,20.13
2019-06-20T22:05:27.357Z,26.87
2019-06-20T22:07:56.742Z,19.77
2019-06-20T22:10:26.096Z,20.30
2019-06-20T22:12:55.467Z,19.67
2019-06-20T22:15:24.938Z,19.00
2019-06-20T22:17:54.273Z,17.07
2019-06-20T22:20:23.724Z,14.73
2019-06-20T22:22:53.244Z,14.37
2019-06-20T22:25:22.907Z,10.87
2019-06-20T22:27:52.516Z,10.83
2019-06-20T22:30:41.517Z,11.17
2019-06-20T22:33:11.010Z,10.70
2019-06-20T22:35:40.519Z,12.20
2019-06-20T22:38:10.040Z,11.97
2019-06-20T22:40:39.895Z,11.13
2019-06-20T22:43:09.359Z,11.03
2019-06-20T22:45:38.877Z,10.57
2019-06-20T22:48:08.609Z,13.47
2019-06-20T22:50:38.024Z,11.30
2019-06-20T22:53:07.502Z,12.23
2019-06-20T22:55:36.876Z,12.70
2019-06-20T22:58:06.567Z,14.27
2019-06-20T23:00:36.732Z,12.17
2019-06-20T23:03:06.618Z,9.97
2019-06-20T23:05:36.484Z,11.10
2019-06-20T23:08:06.006Z,13.20
2019-06-20T23:10:35.344Z,13.23
2019-06-20T23:13:04.854Z,14.10
2019-06-20T23:15:34.260Z,12.47
2019-06-20T23:18:03.633Z,13.17
2019-06-20T23:20:33.061Z,13.60
2019-06-20T23:23:02.391Z,11.03
2019-06-20T23:25:32.380Z,12.10
2019-06-20T23:28:02.051Z,10.30
2019-06-20T23:30:31.404Z,11.50
2019-06-20T23:33:00.849Z,13.00
2019-06-20T23:35:30.251Z,10.90
2019-06-20T23:37:59.629Z,10.60
2019-06-20T23:40:29.042Z,10.50
2019-06-20T23:42:58.401Z,11.77
2019-06-20T23:45:27.801Z,11.13
2019-06-20T23:47:57.206Z,11.47
2019-06-20T23:50:26.646Z,14.47
2019-06-20T23:53:10.622Z,10.23
2019-06-20T23:55:39.973Z,13.33
2019-06-20T23:58:09.363Z,11.40
